sensor_id;sensor_type;location;lat;lon;timestamp;P1;durP1;ratioP1;P2;durP2;ratioP2
7211;SDS011;3647;48.792;9.802;2023-04-30T06:06:09;9.93;;;6.93;;
7211;SDS011;3647;48.792;9.802;2023-04-30T06:08:36;7.60;;;6.10;;
7211;SDS011;3647;48.792;9.802;2023-04-30T06:11:06;7.10;;;5.60;;
7211;SDS011;3647;48.792;9.802;2023-04-30T06:13:33;7.37;;;6.40;;
7211;SDS011;3647;48.792;9.802;2023-04-30T06:15:59;8.67;;;6.60;;
7211;SDS011;3647;48.792;9.802;2023-04-30T06:18:26;12.13;;;6.50;;
7211;SDS011;3647;48.792;9.802;2023-04-30T06:20:53;9.23;;;6.30;;
7211;SDS011;3647;48.792;9.802;2023-04-30T06:23:21;8.10;;;6.13;;
7211;SDS011;3647;48.792;9.802;2023-04-30T06:25:48;7.57;;;6.27;;
7211;SDS011;3647;48.792;9.802;2023-04-30T06:28:14;8.23;;;6.40;;
7211;SDS011;3647;48.792;9.802;2023-04-30T06:30:42;7.47;;;6.00;;
7211;SDS011;3647;48.792;9.802;2023-04-30T06:33:08;7.97;;;6.53;;
7211;SDS011;3647;48.792;9.802;2023-04-30T06:35:35;9.13;;;6.47;;
7211;SDS011;3647;48.792;9.802;2023-04-30T06:38:02;8.90;;;6.63;;
7211;SDS011;3647;48.792;9.802;2023-04-30T06:40:30;7.30;;;5.63;;
7211;SDS011;3647;48.792;9.802;2023-04-30T06:42:57;6.87;;;5.80;;
7211;SDS011;3647;48.792;9.802;2023-04-30T06:45:24;7.50;;;5.83;;
7211;SDS011;3647;48.792;9.802;2023-04-30T06:47:50;6.97;;;6.07;;
7211;SDS011;3647;48.792;9.802;2023-04-30T06:50:17;6.33;;;5.00;;
7211;SDS011;3647;48.792;9.802;2023-04-30T06:52:45;7.23;;;5.77;;
7211;SDS011;3647;48.792;9.802;2023-04-30T06:55:12;6.10;;;5.37;;
7211;SDS011;3647;48.792;9.802;2023-04-30T06:57:41;5.70;;;4.60;;
7211;SDS011;3647;48.792;9.802;2023-04-30T07:00:07;7.80;;;5.90;;
7211;SDS011;3647;48.792;9.802;2023-04-30T07:02:35;7.93;;;5.63;;
7211;SDS011;3647;48.792;9.802;2023-04-30T07:05:02;5.63;;;4.87;;
7211;SDS011;3647;48.792;9.802;2023-04-30T07:07:29;7.40;;;4.97;;
7211;SDS011;3647;48.792;9.802;2023-04-30T07:09:56;6.93;;;5.77;;
7211;SDS011;3647;48.792;9.802;2023-04-30T07:12:23;6.93;;;5.73;;
7211;SDS011;3647;48.792;9.802;2023-04-30T07:14:51;8.30;;;5.60;;
7211;SDS011;3647;48.792;9.802;2023-04-30T07:17:19;8.20;;;6.47;;
7211;SDS011;3647;48.792;9.802;2023-04-30T07:19:46;7.27;;;5.50;;
7211;SDS011;3647;48.792;9.802;2023-04-30T07:22:13;8.30;;;6.10;;
7211;SDS011;3647;48.792;9.802;2023-04-30T07:24:39;6.10;;;5.47;;
7211;SDS011;3647;48.792;9.802;2023-04-30T07:27:06;8.93;;;6.00;;
7211;SDS011;3647;48.792;9.802;2023-04-30T07:29:34;6.40;;;5.27;;
7211;SDS011;3647;48.792;9.802;2023-04-30T07:32:02;8.10;;;5.73;;
7211;SDS011;3647;48.792;9.802;2023-04-30T07:34:30;9.87;;;6.90;;
7211;SDS011;3647;48.792;9.802;2023-04-30T07:36:57;6.20;;;5.23;;
7211;SDS011;3647;48.792;9.802;2023-04-30T07:39:23;6.87;;;4.77;;
7211;SDS011;3647;48.792;9.802;2023-04-30T07:41:50;7.00;;;5.73;;
7211;SDS011;3647;48.792;9.802;2023-04-30T07:44:17;7.67;;;6.27;;
7211;SDS011;3647;48.792;9.802;2023-04-30T07:46:44;6.37;;;5.23;;
7211;SDS011;3647;48.792;9.802;2023-04-30T07:49:12;7.47;;;5.60;;
7211;SDS011;3647;48.792;9.802;2023-04-30T07:51:38;5.60;;;5.10;;
7211;SDS011;3647;48.792;9.802;2023-04-30T07:54:06;6.70;;;5.43;;
7211;SDS011;3647;48.792;9.802;2023-04-30T07:56:33;5.50;;;4.83;;
7211;SDS011;3647;48.792;9.802;2023-04-30T07:59:00;6.30;;;5.13;;
7211;SDS011;3647;48.792;9.802;2023-04-30T08:01:27;7.43;;;5.90;;
7211;SDS011;3647;48.792;9.802;2023-04-30T08:03:54;7.50;;;5.80;;
7211;SDS011;3647;48.792;9.802;2023-04-30T08:06:22;5.87;;;4.83;;
7211;SDS011;3647;48.792;9.802;2023-04-30T08:08:49;6.67;;;5.27;;
7211;SDS011;3647;48.792;9.802;2023-04-30T08:11:15;6.00;;;4.77;;
7211;SDS011;3647;48.792;9.802;2023-04-30T08:13:42;7.17;;;5.43;;
7211;SDS011;3647;48.792;9.802;2023-04-30T08:16:10;8.23;;;5.37;;
7211;SDS011;3647;48.792;9.802;2023-04-30T08:18:37;9.07;;;4.93;;
7211;SDS011;3647;48.792;9.802;2023-04-30T08:21:08;5.00;;;4.30;;
7211;SDS011;3647;48.792;9.802;2023-04-30T08:23:36;4.03;;;3.73;;
7211;SDS011;3647;48.792;9.802;2023-04-30T08:26:03;5.13;;;4.63;;
7211;SDS011;3647;48.792;9.802;2023-04-30T08:28:31;4.40;;;4.00;;
7211;SDS011;3647;48.792;9.802;2023-04-30T08:30:58;4.67;;;4.20;;
7211;SDS011;3647;48.792;9.802;2023-04-30T08:33:25;5.30;;;4.43;;
7211;SDS011;3647;48.792;9.802;2023-04-30T08:35:51;5.70;;;3.87;;
7211;SDS011;3647;48.792;9.802;2023-04-30T08:38:18;7.10;;;4.10;;
7211;SDS011;3647;48.792;9.802;2023-04-30T08:40:47;26.10;;;6.47;;
7211;SDS011;3647;48.792;9.802;2023-04-30T08:43:21;6.87;;;4.47;;
7211;SDS011;3647;48.792;9.802;2023-04-30T08:45:48;3.77;;;3.27;;
7211;SDS011;3647;48.792;9.802;2023-04-30T08:48:17;4.87;;;4.03;;
7211;SDS011;3647;48.792;9.802;2023-04-30T08:50:45;4.27;;;3.37;;
7211;SDS011;3647;48.792;9.802;2023-04-30T08:53:13;3.50;;;3.20;;
7211;SDS011;3647;48.792;9.802;2023-04-30T08:55:41;3.70;;;3.30;;
7211;SDS011;3647;48.792;9.802;2023-04-30T08:58:10;6.33;;;2.90;;
7211;SDS011;3647;48.792;9.802;2023-04-30T09:00:37;4.00;;;3.13;;
7211;SDS011;3647;48.792;9.802;2023-04-30T09:03:04;2.55;;;2.35;;
7211;SDS011;3647;48.792;9.802;2023-04-30T09:05:32;3.20;;;2.70;;
7211;SDS011;3647;48.792;9.802;2023-04-30T09:07:59;3.37;;;3.03;;
7211;SDS011;3647;48.792;9.802;2023-04-30T09:10:26;3.73;;;3.10;;
7211;SDS011;3647;48.792;9.802;2023-04-30T09:12:59;3.20;;;2.90;;
7211;SDS011;3647;48.792;9.802;2023-04-30T09:15:29;3.00;;;2.67;;
7211;SDS011;3647;48.792;9.802;2023-04-30T09:18:06;3.63;;;2.80;;
7211;SDS011;3647;48.792;9.802;2023-04-30T09:20:34;3.27;;;2.97;;
7211;SDS011;3647;48.792;9.802;2023-04-30T09:23:05;2.60;;;2.40;;
7211;SDS011;3647;48.792;9.802;2023-04-30T09:25:37;2.63;;;2.42;;
7211;SDS011;3647;48.792;9.802;2023-04-30T09:28:06;3.50;;;2.77;;
7211;SDS011;3647;48.792;9.802;2023-04-30T09:30:35;3.50;;;3.20;;
7211;SDS011;3647;48.792;9.802;2023-04-30T09:33:03;3.55;;;3.17;;
7211;SDS011;3647;48.792;9.802;2023-04-30T09:35:31;3.30;;;3.00;;
7211;SDS011;3647;48.792;9.802;2023-04-30T09:37:59;4.43;;;3.42;;
7211;SDS011;3647;48.792;9.802;2023-04-30T09:40:36;2.95;;;2.70;;
7211;SDS011;3647;48.792;9.802;2023-04-30T09:43:04;3.00;;;2.70;;
7211;SDS011;3647;48.792;9.802;2023-04-30T09:45:42;5.23;;;3.37;;
7211;SDS011;3647;48.792;9.802;2023-04-30T09:48:11;2.85;;;2.42;;
7211;SDS011;3647;48.792;9.802;2023-04-30T09:50:38;3.03;;;2.73;;
7211;SDS011;3647;48.792;9.802;2023-04-30T09:53:06;3.10;;;2.87;;
7211;SDS011;3647;48.792;9.802;2023-04-30T13:54:29;3.03;;;2.42;;
7211;SDS011;3647;48.792;9.802;2023-04-30T13:56:56;2.58;;;2.38;;
7211;SDS011;3647;48.792;9.802;2023-04-30T13:59:24;2.53;;;2.20;;
7211;SDS011;3647;48.792;9.802;2023-04-30T14:01:51;3.33;;;2.38;;
7211;SDS011;3647;48.792;9.802;2023-04-30T14:04:18;2.35;;;2.15;;
7211;SDS011;3647;48.792;9.802;2023-04-30T14:06:45;2.67;;;2.47;;
7211;SDS011;3647;48.792;9.802;2023-04-30T14:09:13;2.30;;;2.13;;
7211;SDS011;3647;48.792;9.802;2023-04-30T14:11:41;3.67;;;2.70;;
7211;SDS011;3647;48.792;9.802;2023-04-30T14:14:08;2.30;;;2.20;;
7211;SDS011;3647;48.792;9.802;2023-04-30T14:16:34;2.35;;;2.15;;
7211;SDS011;3647;48.792;9.802;2023-04-30T14:19:02;2.65;;;2.38;;
7211;SDS011;3647;48.792;9.802;2023-04-30T14:21:29;2.50;;;2.30;;
7211;SDS011;3647;48.792;9.802;2023-04-30T14:23:57;2.55;;;2.35;;
7211;SDS011;3647;48.792;9.802;2023-04-30T14:26:24;2.63;;;2.42;;
7211;SDS011;3647;48.792;9.802;2023-04-30T14:28:52;2.60;;;2.40;;
7211;SDS011;3647;48.792;9.802;2023-04-30T14:31:18;3.17;;;2.35;;
7211;SDS011;3647;48.792;9.802;2023-04-30T14:33:45;2.60;;;2.33;;
7211;SDS011;3647;48.792;9.802;2023-04-30T14:36:12;2.50;;;2.30;;
7211;SDS011;3647;48.792;9.802;2023-04-30T14:38:39;4.43;;;2.90;;
7211;SDS011;3647;48.792;9.802;2023-04-30T14:41:06;2.75;;;2.55;;
7211;SDS011;3647;48.792;9.802;2023-04-30T14:43:33;2.90;;;2.60;;
7211;SDS011;3647;48.792;9.802;2023-04-30T14:46:02;2.63;;;2.42;;
7211;SDS011;3647;48.792;9.802;2023-04-30T14:48:29;2.70;;;2.50;;
7211;SDS011;3647;48.792;9.802;2023-04-30T14:50:56;2.55;;;2.35;;
7211;SDS011;3647;48.792;9.802;2023-04-30T14:53:25;2.72;;;2.53;;
7211;SDS011;3647;48.792;9.802;2023-04-30T14:55:52;2.67;;;2.47;;
7211;SDS011;3647;48.792;9.802;2023-04-30T14:58:19;2.50;;;2.30;;
7211;SDS011;3647;48.792;9.802;2023-04-30T15:00:46;2.53;;;2.33;;
7211;SDS011;3647;48.792;9.802;2023-04-30T15:03:14;2.78;;;2.58;;
7211;SDS011;3647;48.792;9.802;2023-04-30T15:05:41;2.42;;;2.30;;
7211;SDS011;3647;48.792;9.802;2023-04-30T15:08:08;2.22;;;1.70;;
7211;SDS011;3647;48.792;9.802;2023-04-30T15:10:35;2.42;;;2.22;;
7211;SDS011;3647;48.792;9.802;2023-04-30T15:13:02;2.33;;;2.10;;
7211;SDS011;3647;48.792;9.802;2023-04-30T15:15:29;2.97;;;2.50;;
7211;SDS011;3647;48.792;9.802;2023-04-30T15:17:57;2.60;;;2.40;;
7211;SDS011;3647;48.792;9.802;2023-04-30T15:20:25;2.53;;;2.33;;
7211;SDS011;3647;48.792;9.802;2023-04-30T15:22:52;2.40;;;2.13;;
7211;SDS011;3647;48.792;9.802;2023-04-30T15:25:19;2.15;;;2.05;;
7211;SDS011;3647;48.792;9.802;2023-04-30T15:27:47;2.80;;;2.25;;
7211;SDS011;3647;48.792;9.802;2023-04-30T15:30:15;2.60;;;2.40;;
7211;SDS011;3647;48.792;9.802;2023-04-30T15:32:42;2.47;;;2.28;;
7211;SDS011;3647;48.792;9.802;2023-04-30T15:35:10;2.03;;;1.90;;
7211;SDS011;3647;48.792;9.802;2023-04-30T15:37:38;2.22;;;2.10;;
7211;SDS011;3647;48.792;9.802;2023-04-30T15:40:05;2.38;;;2.10;;
7211;SDS011;3647;48.792;9.802;2023-04-30T15:42:34;2.55;;;2.35;;
7211;SDS011;3647;48.792;9.802;2023-04-30T15:45:02;2.45;;;2.25;;
7211;SDS011;3647;48.792;9.802;2023-04-30T15:47:29;2.42;;;2.17;;
7211;SDS011;3647;48.792;9.802;2023-04-30T15:49:56;2.20;;;2.00;;
7211;SDS011;3647;48.792;9.802;2023-04-30T15:52:23;2.30;;;2.10;;
7211;SDS011;3647;48.792;9.802;2023-04-30T15:54:51;3.13;;;2.40;;
7211;SDS011;3647;48.792;9.802;2023-04-30T15:57:18;2.60;;;2.40;;
7211;SDS011;3647;48.792;9.802;2023-04-30T15:59:45;2.75;;;2.22;;
7211;SDS011;3647;48.792;9.802;2023-04-30T16:02:12;2.13;;;2.00;;
7211;SDS011;3647;48.792;9.802;2023-04-30T16:04:39;2.30;;;2.10;;
7211;SDS011;3647;48.792;9.802;2023-04-30T16:07:07;2.30;;;2.13;;
7211;SDS011;3647;48.792;9.802;2023-04-30T16:09:34;2.33;;;2.13;;
7211;SDS011;3647;48.792;9.802;2023-04-30T16:12:03;2.63;;;2.43;;
7211;SDS011;3647;48.792;9.802;2023-04-30T16:14:29;2.30;;;2.10;;
7211;SDS011;3647;48.792;9.802;2023-04-30T16:16:56;2.40;;;2.20;;
7211;SDS011;3647;48.792;9.802;2023-04-30T16:19:23;2.25;;;2.15;;
7211;SDS011;3647;48.792;9.802;2023-04-30T16:21:50;3.15;;;2.90;;
7211;SDS011;3647;48.792;9.802;2023-04-30T16:24:18;2.40;;;2.25;;
7211;SDS011;3647;48.792;9.802;2023-04-30T16:26:45;2.25;;;2.13;;
7211;SDS011;3647;48.792;9.802;2023-04-30T16:29:13;2.50;;;2.30;;
7211;SDS011;3647;48.792;9.802;2023-04-30T16:31:40;2.22;;;2.10;;
7211;SDS011;3647;48.792;9.802;2023-04-30T16:34:07;2.50;;;2.30;;
7211;SDS011;3647;48.792;9.802;2023-04-30T16:36:36;1.90;;;1.80;;
7211;SDS011;3647;48.792;9.802;2023-04-30T16:39:02;2.17;;;2.08;;
7211;SDS011;3647;48.792;9.802;2023-04-30T16:41:29;2.33;;;2.13;;
7211;SDS011;3647;48.792;9.802;2023-04-30T16:43:56;2.05;;;1.95;;
7211;SDS011;3647;48.792;9.802;2023-04-30T16:46:24;2.58;;;2.38;;
7211;SDS011;3647;48.792;9.802;2023-04-30T16:48:52;3.30;;;2.45;;
7211;SDS011;3647;48.792;9.802;2023-04-30T16:51:19;3.08;;;2.47;;
7211;SDS011;3647;48.792;9.802;2023-04-30T16:53:46;3.75;;;3.45;;
7211;SDS011;3647;48.792;9.802;2023-04-30T16:56:13;2.45;;;2.25;;
7211;SDS011;3647;48.792;9.802;2023-04-30T16:58:40;3.13;;;2.45;;
7211;SDS011;3647;48.792;9.802;2023-04-30T17:01:07;2.50;;;2.30;;
7211;SDS011;3647;48.792;9.802;2023-04-30T17:03:36;2.30;;;2.10;;
7211;SDS011;3647;48.792;9.802;2023-04-30T17:06:03;2.60;;;2.40;;
7211;SDS011;3647;48.792;9.802;2023-04-30T17:08:30;2.15;;;1.95;;
7211;SDS011;3647;48.792;9.802;2023-04-30T17:10:57;2.55;;;2.35;;
7211;SDS011;3647;48.792;9.802;2023-04-30T17:13:24;2.50;;;2.30;;
7211;SDS011;3647;48.792;9.802;2023-04-30T17:15:54;2.45;;;2.25;;
7211;SDS011;3647;48.792;9.802;2023-04-30T17:18:23;1.98;;;1.77;;
7211;SDS011;3647;48.792;9.802;2023-04-30T17:20:52;2.20;;;2.00;;
7211;SDS011;3647;48.792;9.802;2023-04-30T17:23:19;2.60;;;2.40;;
7211;SDS011;3647;48.792;9.802;2023-04-30T17:25:46;2.30;;;2.10;;
7211;SDS011;3647;48.792;9.802;2023-04-30T17:28:13;2.30;;;2.05;;
7211;SDS011;3647;48.792;9.802;2023-04-30T17:30:40;2.58;;;2.38;;
7211;SDS011;3647;48.792;9.802;2023-04-30T17:33:08;2.95;;;2.65;;
7211;SDS011;3647;48.792;9.802;2023-04-30T17:35:35;2.92;;;2.50;;
7211;SDS011;3647;48.792;9.802;2023-04-30T17:38:03;2.42;;;2.22;;
7211;SDS011;3647;48.792;9.802;2023-04-30T17:40:30;3.55;;;2.70;;
7211;SDS011;3647;48.792;9.802;2023-04-30T17:42:57;2.40;;;2.20;;
7211;SDS011;3647;48.792;9.802;2023-04-30T17:45:24;2.38;;;2.17;;
7211;SDS011;3647;48.792;9.802;2023-04-30T17:47:51;2.67;;;2.47;;
7211;SDS011;3647;48.792;9.802;2023-04-30T17:50:18;3.00;;;2.42;;
7211;SDS011;3647;48.792;9.802;2023-04-30T17:52:45;2.40;;;2.20;;
7211;SDS011;3647;48.792;9.802;2023-04-30T17:55:13;2.22;;;2.00;;
7211;SDS011;3647;48.792;9.802;2023-04-30T17:57:40;2.70;;;2.50;;
7211;SDS011;3647;48.792;9.802;2023-04-30T18:00:07;3.27;;;3.07;;
7211;SDS011;3647;48.792;9.802;2023-04-30T18:02:35;2.60;;;2.40;;
7211;SDS011;3647;48.792;9.802;2023-04-30T18:05:02;2.70;;;2.42;;
7211;SDS011;3647;48.792;9.802;2023-04-30T18:07:29;2.67;;;2.47;;
7211;SDS011;3647;48.792;9.802;2023-04-30T18:09:56;2.53;;;2.33;;
7211;SDS011;3647;48.792;9.802;2023-04-30T18:12:24;3.30;;;2.55;;
7211;SDS011;3647;48.792;9.802;2023-04-30T18:14:51;2.33;;;2.13;;
7211;SDS011;3647;48.792;9.802;2023-04-30T18:17:18;3.27;;;2.60;;
7211;SDS011;3647;48.792;9.802;2023-04-30T18:19:45;3.60;;;2.37;;
7211;SDS011;3647;48.792;9.802;2023-04-30T18:22:13;2.80;;;2.53;;
7211;SDS011;3647;48.792;9.802;2023-04-30T18:24:40;2.42;;;2.22;;
7211;SDS011;3647;48.792;9.802;2023-04-30T18:27:07;2.60;;;2.40;;
7211;SDS011;3647;48.792;9.802;2023-04-30T18:29:35;2.90;;;2.60;;
7211;SDS011;3647;48.792;9.802;2023-04-30T18:32:02;2.53;;;2.33;;
7211;SDS011;3647;48.792;9.802;2023-04-30T18:34:29;2.70;;;2.50;;
7211;SDS011;3647;48.792;9.802;2023-04-30T18:36:56;2.83;;;2.63;;
7211;SDS011;3647;48.792;9.802;2023-04-30T18:39:23;3.00;;;2.80;;
7211;SDS011;3647;48.792;9.802;2023-04-30T18:41:50;3.13;;;2.85;;
7211;SDS011;3647;48.792;9.802;2023-04-30T18:44:17;6.10;;;3.95;;
7211;SDS011;3647;48.792;9.802;2023-04-30T18:46:46;4.27;;;3.43;;
7211;SDS011;3647;48.792;9.802;2023-04-30T18:49:12;4.17;;;3.83;;
7211;SDS011;3647;48.792;9.802;2023-04-30T18:51:39;3.27;;;3.00;;
7211;SDS011;3647;48.792;9.802;2023-04-30T18:54:06;3.77;;;3.30;;
7211;SDS011;3647;48.792;9.802;2023-04-30T18:56:34;4.67;;;3.47;;
7211;SDS011;3647;48.792;9.802;2023-04-30T18:59:01;3.70;;;3.40;;
7211;SDS011;3647;48.792;9.802;2023-04-30T19:01:28;3.70;;;3.33;;
7211;SDS011;3647;48.792;9.802;2023-04-30T19:03:57;3.30;;;3.10;;
7211;SDS011;3647;48.792;9.802;2023-04-30T19:06:23;3.83;;;3.53;;
7211;SDS011;3647;48.792;9.802;2023-04-30T19:08:50;4.37;;;3.87;;
7211;SDS011;3647;48.792;9.802;2023-04-30T19:11:18;4.27;;;3.53;;
7211;SDS011;3647;48.792;9.802;2023-04-30T19:13:46;4.33;;;3.70;;
7211;SDS011;3647;48.792;9.802;2023-04-30T19:16:13;4.93;;;4.10;;
7211;SDS011;3647;48.792;9.802;2023-04-30T19:18:40;4.47;;;4.07;;
7211;SDS011;3647;48.792;9.802;2023-04-30T19:21:09;3.97;;;3.60;;
7211;SDS011;3647;48.792;9.802;2023-04-30T19:23:37;4.33;;;3.80;;
7211;SDS011;3647;48.792;9.802;2023-04-30T19:26:04;4.83;;;4.33;;
7211;SDS011;3647;48.792;9.802;2023-04-30T19:28:31;4.73;;;3.73;;
7211;SDS011;3647;48.792;9.802;2023-04-30T19:30:58;4.63;;;3.77;;
7211;SDS011;3647;48.792;9.802;2023-04-30T19:33:25;3.40;;;3.10;;
7211;SDS011;3647;48.792;9.802;2023-04-30T19:35:52;4.63;;;4.13;;
7211;SDS011;3647;48.792;9.802;2023-04-30T19:38:22;3.70;;;3.30;;
7211;SDS011;3647;48.792;9.802;2023-04-30T19:40:50;4.50;;;4.10;;
7211;SDS011;3647;48.792;9.802;2023-04-30T19:43:19;3.97;;;3.57;;
7211;SDS011;3647;48.792;9.802;2023-04-30T19:45:48;4.53;;;4.13;;
7211;SDS011;3647;48.792;9.802;2023-04-30T19:48:16;4.03;;;3.60;;
7211;SDS011;3647;48.792;9.802;2023-04-30T19:50:44;4.00;;;3.53;;
7211;SDS011;3647;48.792;9.802;2023-04-30T19:53:11;6.23;;;3.93;;
7211;SDS011;3647;48.792;9.802;2023-04-30T19:55:40;3.70;;;3.30;;
7211;SDS011;3647;48.792;9.802;2023-04-30T19:58:07;4.10;;;3.70;;
7211;SDS011;3647;48.792;9.802;2023-04-30T20:00:34;4.47;;;3.80;;
7211;SDS011;3647;48.792;9.802;2023-04-30T20:03:02;3.53;;;3.23;;
7211;SDS011;3647;48.792;9.802;2023-04-30T20:05:30;3.83;;;3.50;;
7211;SDS011;3647;48.792;9.802;2023-04-30T20:07:57;4.10;;;3.80;;
7211;SDS011;3647;48.792;9.802;2023-04-30T20:10:25;5.07;;;3.93;;
7211;SDS011;3647;48.792;9.802;2023-04-30T20:12:53;4.10;;;3.70;;
7211;SDS011;3647;48.792;9.802;2023-04-30T20:15:20;4.23;;;3.70;;
7211;SDS011;3647;48.792;9.802;2023-04-30T20:17:48;4.67;;;4.23;;
7211;SDS011;3647;48.792;9.802;2023-04-30T20:20:15;5.60;;;4.73;;
7211;SDS011;3647;48.792;9.802;2023-04-30T20:22:43;7.50;;;5.93;;
7211;SDS011;3647;48.792;9.802;2023-04-30T20:25:10;7.07;;;6.37;;
7211;SDS011;3647;48.792;9.802;2023-04-30T20:27:37;6.43;;;5.20;;
7211;SDS011;3647;48.792;9.802;2023-04-30T20:30:06;5.97;;;4.60;;
7211;SDS011;3647;48.792;9.802;2023-04-30T20:32:34;5.87;;;5.23;;
7211;SDS011;3647;48.792;9.802;2023-04-30T20:35:03;5.63;;;4.87;;
7211;SDS011;3647;48.792;9.802;2023-04-30T20:37:30;4.80;;;4.27;;
7211;SDS011;3647;48.792;9.802;2023-04-30T20:39:57;5.30;;;4.43;;
7211;SDS011;3647;48.792;9.802;2023-04-30T20:42:24;5.53;;;4.77;;
7211;SDS011;3647;48.792;9.802;2023-04-30T20:44:52;4.73;;;4.17;;
7211;SDS011;3647;48.792;9.802;2023-04-30T20:47:20;4.83;;;4.33;;
7211;SDS011;3647;48.792;9.802;2023-04-30T20:49:47;5.00;;;4.50;;
7211;SDS011;3647;48.792;9.802;2023-04-30T20:52:15;6.37;;;4.37;;
7211;SDS011;3647;48.792;9.802;2023-04-30T20:54:42;5.17;;;4.23;;
7211;SDS011;3647;48.792;9.802;2023-04-30T20:57:09;5.97;;;4.87;;
7211;SDS011;3647;48.792;9.802;2023-04-30T20:59:36;7.30;;;5.93;;
7211;SDS011;3647;48.792;9.802;2023-04-30T21:02:03;6.00;;;5.13;;
7211;SDS011;3647;48.792;9.802;2023-04-30T21:04:31;7.07;;;5.40;;
7211;SDS011;3647;48.792;9.802;2023-04-30T21:06:58;9.43;;;6.07;;
7211;SDS011;3647;48.792;9.802;2023-04-30T21:09:25;8.60;;;6.27;;
7211;SDS011;3647;48.792;9.802;2023-04-30T21:11:52;5.83;;;5.10;;
7211;SDS011;3647;48.792;9.802;2023-04-30T21:14:20;5.30;;;4.43;;
7211;SDS011;3647;48.792;9.802;2023-04-30T21:16:47;11.60;;;6.83;;
7211;SDS011;3647;48.792;9.802;2023-04-30T21:19:15;9.00;;;6.37;;
7211;SDS011;3647;48.792;9.802;2023-04-30T21:21:43;8.97;;;6.60;;
7211;SDS011;3647;48.792;9.802;2023-04-30T21:24:10;15.17;;;10.00;;
7211;SDS011;3647;48.792;9.802;2023-04-30T21:26:37;6.30;;;5.07;;
7211;SDS011;3647;48.792;9.802;2023-04-30T21:29:04;5.37;;;4.63;;
7211;SDS011;3647;48.792;9.802;2023-04-30T21:31:31;5.43;;;3.80;;
